createdAt,value
2018-11-13T00:03:14.592Z,5.67
2018-11-13T00:13:14.474Z,5.23
2018-11-13T00:23:14.311Z,4.50
2018-11-13T00:33:17.274Z,4.30
2018-11-13T00:43:32.777Z,4.90
2018-11-13T00:53:35.187Z,5.77
2018-11-13T01:03:44.807Z,5.00
2018-11-13T01:13:46.281Z,4.70
2018-11-13T01:23:46.679Z,5.50
2018-11-13T01:33:47.982Z,4.67
2018-11-13T01:43:48.214Z,3.70
2018-11-13T01:53:48.051Z,3.53
2018-11-13T02:03:47.933Z,3.47
2018-11-13T02:13:47.753Z,4.00
2018-11-13T02:23:47.583Z,4.17
2018-11-13T02:33:47.453Z,6.03
2018-11-13T02:43:47.659Z,5.73
2018-11-13T02:53:47.442Z,6.63
2018-11-13T03:03:47.296Z,7.17
2018-11-13T03:13:47.196Z,8.63
2018-11-13T03:23:46.940Z,6.00
2018-11-13T03:33:46.768Z,6.20
2018-11-13T03:43:46.594Z,5.80
2018-11-13T03:53:46.429Z,4.97
2018-11-13T04:03:46.260Z,5.20
2018-11-13T04:13:46.089Z,3.83
2018-11-13T04:23:45.988Z,4.50
2018-11-13T04:33:45.786Z,3.80
2018-11-13T04:43:46.120Z,3.70
2018-11-13T04:53:46.428Z,5.13
2018-11-13T05:03:46.593Z,3.83
2018-11-13T05:13:46.415Z,3.10
2018-11-13T05:23:46.260Z,3.20
2018-11-13T05:33:46.084Z,3.00
2018-11-13T05:43:45.911Z,3.73
2018-11-13T05:53:45.741Z,4.13
2018-11-13T06:03:45.676Z,4.30
2018-11-13T06:13:45.542Z,5.17
2018-11-13T06:23:45.630Z,3.07
2018-11-13T06:33:45.531Z,3.30
2018-11-13T06:43:45.644Z,2.70
2018-11-13T06:54:21.813Z,2.97
2018-11-13T07:04:21.837Z,2.97
2018-11-13T07:14:21.723Z,3.20
2018-11-13T07:24:21.570Z,3.33
2018-11-13T07:34:21.522Z,2.90
2018-11-13T07:44:21.628Z,2.80
2018-11-13T07:54:22.917Z,4.20
2018-11-13T08:04:35.247Z,3.47
2018-11-13T08:14:35.159Z,4.00
2018-11-13T08:24:35.182Z,4.50
2018-11-13T08:34:36.696Z,4.00
2018-11-13T08:44:37.883Z,3.90
2018-11-13T08:54:37.997Z,5.57
2018-11-13T09:04:37.939Z,6.60
2018-11-13T09:14:38.815Z,3.60
2018-11-13T09:24:38.860Z,3.27
2018-11-13T09:34:38.778Z,2.30
2018-11-13T09:44:38.609Z,2.30
2018-11-13T09:54:56.771Z,2.60
2018-11-13T10:05:15.997Z,3.10
2018-11-13T10:15:33.144Z,3.10
2018-11-13T10:25:51.168Z,2.93
2018-11-13T10:36:09.316Z,3.17
2018-11-13T10:46:26.881Z,3.37
2018-11-13T10:56:45.942Z,3.10
2018-11-13T11:07:03.770Z,2.67
2018-11-13T11:17:21.873Z,4.03
2018-11-13T11:27:39.626Z,5.50
2018-11-13T11:37:58.252Z,3.87
2018-11-13T11:48:19.315Z,3.50
2018-11-13T11:58:37.532Z,3.23
2018-11-13T12:08:58.280Z,3.10
2018-11-13T12:19:19.035Z,3.30
2018-11-13T12:29:37.419Z,3.40
2018-11-13T12:39:58.865Z,3.30
2018-11-13T12:50:19.134Z,4.73
2018-11-13T13:00:39.915Z,4.97
2018-11-13T13:11:02.233Z,4.87
2018-11-13T13:21:20.170Z,5.50
2018-11-13T13:31:39.432Z,6.27
2018-11-13T13:41:58.109Z,6.30
2018-11-13T13:52:16.806Z,6.67
2018-11-13T14:02:35.056Z,7.23
2018-11-13T14:12:53.162Z,6.70
2018-11-13T14:23:15.638Z,6.97
2018-11-13T14:33:34.026Z,7.70
2018-11-13T14:43:52.262Z,7.87
2018-11-13T14:54:10.330Z,7.27
2018-11-13T15:04:28.469Z,8.00
2018-11-13T15:14:46.634Z,8.70
2018-11-13T15:25:05.893Z,8.67
2018-11-13T15:35:23.644Z,7.60
2018-11-13T15:45:41.260Z,7.20
2018-11-13T15:55:59.058Z,8.83
2018-11-13T16:06:16.994Z,10.27
2018-11-13T16:16:35.265Z,9.63
2018-11-13T16:26:53.329Z,6.30
2018-11-13T16:37:11.499Z,4.87
2018-11-13T16:47:29.755Z,4.43
2018-11-13T16:57:48.120Z,4.30
2018-11-13T17:08:06.076Z,4.00
2018-11-13T17:18:23.904Z,7.37
2018-11-13T17:28:42.006Z,14.77
2018-11-13T17:39:00.627Z,36.83
2018-11-13T17:49:18.824Z,26.90
2018-11-13T17:59:37.406Z,13.80
2018-11-13T18:09:55.392Z,14.03
2018-11-13T18:20:18.614Z,16.00
2018-11-13T18:30:37.958Z,20.87
2018-11-13T18:40:55.793Z,12.53
2018-11-13T18:51:15.993Z,11.20
2018-11-13T19:01:33.952Z,12.50
2018-11-13T19:11:53.642Z,14.97
2018-11-13T19:22:14.888Z,16.70
2018-11-13T19:32:32.769Z,14.90
2018-11-13T19:42:52.031Z,11.43
2018-11-13T19:53:10.702Z,14.90
2018-11-13T20:03:28.688Z,18.17
2018-11-13T20:13:28.694Z,22.03
2018-11-13T20:23:28.751Z,28.07
2018-11-13T20:33:28.564Z,25.63
2018-11-13T20:43:29.041Z,24.20
2018-11-13T20:53:28.794Z,19.27
2018-11-13T21:03:28.651Z,16.80
2018-11-13T21:13:28.517Z,14.00
2018-11-13T21:23:47.671Z,14.77
2018-11-13T21:34:05.813Z,12.10
2018-11-13T21:44:24.016Z,11.80
2018-11-13T21:54:42.256Z,9.77
2018-11-13T22:05:00.806Z,7.47
2018-11-13T22:15:20.027Z,7.43
2018-11-13T22:25:38.574Z,5.87
2018-11-13T22:35:57.058Z,5.60
2018-11-13T22:46:15.293Z,5.70
2018-11-13T22:56:33.483Z,5.10
2018-11-13T23:06:51.507Z,5.40
2018-11-13T23:17:09.527Z,5.50
2018-11-13T23:27:27.693Z,6.20
2018-11-13T23:37:47.195Z,7.30
2018-11-13T23:48:06.308Z,7.60
2018-11-13T23:58:24.524Z,7.87
